Aérodrome :
LOGIN :

S'inscrire | Disclaimer

   EN    FR    IT 

 










Légende :    VFR   VFR Marginal   IFR   IFR Intensif   IFR Très Intensif
Visi : 
Plafond : 
>= 8 km
>= 3000ft
5 à 8 km
1000 à 3000 ft
1500m à 5 km
500 à 1000 ft
800 à 1500m
200 à 500 ft
< 800m
< 200 ft
Symboles :   Orages  Brouillard  Fortes neiges  Fortes précipitations  Vent > 20 kt
SIGMETs :   Divers  Orages  Givrage  Turbulence  Onde Orograph.  Cendres Volcan.







- Altitude de l'aérodrome : 325 ft
- Code IATA : BES
- Voir les cartes d'approche


LFRB - Brest

DERNIER METAR :
  • 180630Z AUTO 26005KT 9999 FEW017 14/14 Q1015 NOSIG

METARs EXPIRÉS :
  • 180600Z AUTO 25005KT CAVOK 14/13 Q1015 NOSIG
  • 180530Z AUTO 26005KT CAVOK 14/13 Q1015 NOSIG
  • 180500Z AUTO 25005KT 9999 FEW045/// OVC060/// ///CB 15/14 Q1014 BECMG SCT020
  • 180430Z AUTO 26007KT 6000 SCT008 BKN015 BKN020 16/15 Q1014 NOSIG
  • 180400Z AUTO 25009KT 9999 SCT010/// BKN040/// BKN046/// ///TCU 16/15 Q1014 BECMG SCT020

TAF TAF LFRB
Valide du 18 à 06h jusqu'au 19 à 12h UTC


180500Z 1806/1912 26008KT 9999 BKN014
BECMG 1806/1809 SCT020
BECMG 1811/1813 27015G25KT
BECMG 1818/1821 27007KT
ATIS : +33 2 98 32 02 71
Pas de NOTAMs connus pour ce terrain.



MET'MAP, la Météo Aéronautique d'un coup d'oeil ! - Copyright ORBIFLY Décembre 2007 - Disclaimer

ORBIFLY MET'MAP TEAM :

Programmation & Développement : Alexandra Zaïnal
Conception & Développement : Baudouin d'Aumeries
Co-Programmation & Développement : Marc-Olivier Méhu
Soutien technique & logistique : Manuel Goepfert

Contact : metmap@orbifly.com




SOURCES & CREDITS :

   NOAA